Time;durP1;ratioP1;P1;durP2;ratioP2;P2;SDS_P1;SDS_P2;PMS_P1;PMS_P2;Temp;Humidity;BMP_temperature;BMP_pressure;BME280_temperature;BME280_humidity;BME280_pressure;Samples;Min_cycle;Max_cycle;Signal;HPM_P1;HPM_P2
2022/04/20 00:00:36;;;;;;;0.90;0.70;;;10.00;99.90;;;;;;5013917;28;20200;-73
2022/04/20 00:03:04;;;;;;;1.10;0.80;;;10.00;99.90;;;;;;5011151;28;20200;-74
2022/04/20 00:05:33;;;;;;;1.00;0.90;;;9.90;99.90;;;;;;5013171;28;20255;-74
2022/04/20 00:08:00;;;;;;;0.87;0.87;;;9.80;99.90;;;;;;5012246;28;20207;-81
2022/04/20 00:10:28;;;;;;;0.87;0.83;;;9.80;99.90;;;;;;5011634;28;20611;-74
2022/04/20 00:12:55;;;;;;;0.97;0.70;;;9.90;99.90;;;;;;5010163;28;20319;-81
2022/04/20 00:15:23;;;;;;;0.70;0.70;;;9.90;99.90;;;;;;5009385;28;20263;-74
2022/04/20 00:17:50;;;;;;;1.03;1.00;;;10.00;99.90;;;;;;5005032;28;20639;-74
2022/04/20 00:20:18;;;;;;;0.93;0.83;;;9.90;99.90;;;;;;5007624;28;20611;-75
2022/04/20 00:22:45;;;;;;;1.43;1.30;;;9.80;99.90;;;;;;5000727;28;20205;-74
2022/04/20 00:25:12;;;;;;;2.53;0.63;;;9.90;99.90;;;;;;5001689;28;20275;-77
2022/04/20 00:27:39;;;;;;;2.10;0.83;;;10.00;99.90;;;;;;5003217;28;20278;-76
2022/04/20 00:30:09;;;;;;;0.50;0.50;;;10.00;99.90;;;;;;5012407;28;20239;-75
2022/04/20 00:32:38;;;;;;;1.30;0.50;;;10.10;99.90;;;;;;5011353;28;20287;-74
2022/04/20 00:35:06;;;;;;;0.93;0.73;;;10.10;99.90;;;;;;5018795;28;20207;-74
2022/04/20 00:37:34;;;;;;;0.70;0.60;;;10.00;99.90;;;;;;5020071;28;20679;-75
2022/04/20 00:40:01;;;;;;;0.97;0.97;;;9.90;99.90;;;;;;5012299;28;20675;-75
2022/04/20 00:42:29;;;;;;;0.70;0.70;;;9.90;99.90;;;;;;5010785;28;20253;-74
2022/04/20 00:44:57;;;;;;;0.60;0.57;;;9.80;99.90;;;;;;5010060;28;20208;-74
2022/04/20 00:47:25;;;;;;;0.87;0.77;;;9.80;99.90;;;;;;5011339;28;20257;-75
2022/04/20 00:49:54;;;;;;;0.60;0.43;;;9.90;99.90;;;;;;5011836;28;20609;-75
2022/04/20 00:52:20;;;;;;;0.50;0.50;;;9.80;99.90;;;;;;5012187;28;20589;-72
2022/04/20 00:54:47;;;;;;;0.47;0.47;;;9.80;99.90;;;;;;5012376;28;20742;-74
2022/04/20 00:57:15;;;;;;;0.83;0.60;;;9.70;99.90;;;;;;5013033;28;20246;-74
2022/04/20 00:59:44;;;;;;;0.50;0.50;;;9.90;99.90;;;;;;5011733;28;20680;-73
2022/04/20 01:02:11;;;;;;;0.73;0.43;;;9.90;99.90;;;;;;5012503;28;20239;-73
2022/04/20 01:04:38;;;;;;;0.60;0.57;;;9.90;99.90;;;;;;5011584;28;20212;-73
2022/04/20 01:07:12;;;;;;;1.37;0.47;;;9.80;99.90;;;;;;5012566;28;20255;-72
2022/04/20 01:09:40;;;;;;;0.47;0.47;;;9.80;99.90;;;;;;5012339;28;20270;-72
2022/04/20 01:12:08;;;;;;;0.93;0.47;;;9.80;99.90;;;;;;5012410;28;20270;-76
2022/04/20 01:14:36;;;;;;;0.40;0.40;;;9.90;99.90;;;;;;5011140;28;20274;-75
2022/04/20 01:17:03;;;;;;;0.43;0.43;;;9.90;99.90;;;;;;5012177;28;20290;-74
2022/04/20 01:19:33;;;;;;;0.53;0.53;;;10.00;99.90;;;;;;5012081;28;20213;-76
2022/04/20 01:22:02;;;;;;;0.67;0.50;;;9.90;99.90;;;;;;5012655;28;20200;-74
2022/04/20 01:24:29;;;;;;;0.80;0.80;;;9.80;99.90;;;;;;5012568;28;20212;-74
2022/04/20 01:26:56;;;;;;;0.57;0.50;;;9.80;99.90;;;;;;5013085;28;20204;-74
2022/04/20 01:29:25;;;;;;;0.50;0.40;;;9.80;99.90;;;;;;5009561;28;20232;-74
2022/04/20 01:31:53;;;;;;;0.70;0.40;;;9.80;99.90;;;;;;5010365;28;20628;-74
2022/04/20 01:34:20;;;;;;;1.40;0.67;;;9.80;99.90;;;;;;5012168;28;20247;-74
2022/04/20 01:36:47;;;;;;;0.70;0.30;;;9.90;99.90;;;;;;5012668;28;20274;-74
2022/04/20 01:39:16;;;;;;;0.93;0.53;;;9.90;99.90;;;;;;5010727;28;20262;-74
2022/04/20 01:41:43;;;;;;;0.63;0.43;;;9.90;99.90;;;;;;5012527;28;20204;-75
2022/04/20 01:44:10;;;;;;;1.43;0.30;;;9.90;99.90;;;;;;5011057;28;20212;-75
2022/04/20 01:46:37;;;;;;;1.30;1.10;;;9.90;99.90;;;;;;5010541;28;20625;-74
2022/04/20 01:49:04;;;;;;;1.07;0.70;;;9.90;99.90;;;;;;5010464;28;20224;-75
2022/04/20 01:51:51;;;;;;;0.47;0.40;;;9.90;99.90;;;;;;5011791;28;20292;-75
2022/04/20 01:54:19;;;;;;;2.57;1.10;;;9.90;99.90;;;;;;5001345;28;20292;-75
2022/04/20 01:56:47;;;;;;;1.00;0.50;;;9.90;99.90;;;;;;5021702;28;20204;-76
2022/04/20 01:59:15;;;;;;;0.53;0.53;;;9.90;99.90;;;;;;5010770;28;20592;-76
2022/04/20 02:04:26;;;;;;;0.73;0.60;;;9.90;99.90;;;;;;5011127;28;20215;-74
2022/04/20 02:06:53;;;;;;;1.80;0.50;;;9.80;99.90;;;;;;5011942;28;20208;-75
2022/04/20 02:09:22;;;;;;;0.93;0.37;;;9.80;99.90;;;;;;5011757;28;20275;-72
2022/04/20 02:11:49;;;;;;;0.40;0.40;;;9.80;99.90;;;;;;5010444;28;20646;-73
2022/04/20 02:14:16;;;;;;;1.30;0.50;;;9.70;99.90;;;;;;5010346;28;20631;-75
2022/04/20 02:16:43;;;;;;;0.60;0.60;;;9.70;99.90;;;;;;5010657;28;20208;-74
2022/04/20 02:19:09;;;;;;;1.50;1.03;;;9.70;99.90;;;;;;5010734;28;20200;-75
2022/04/20 02:21:36;;;;;;;0.67;0.40;;;9.70;99.90;;;;;;5011630;28;20204;-76
2022/04/20 02:24:04;;;;;;;1.93;0.50;;;9.60;99.90;;;;;;5011589;28;20208;-75
2022/04/20 02:26:33;;;;;;;0.77;0.30;;;9.60;99.90;;;;;;5010267;28;20211;-74
2022/04/20 02:29:00;;;;;;;0.30;0.30;;;9.60;99.90;;;;;;5011699;28;20250;-74
2022/04/20 02:31:27;;;;;;;0.50;0.30;;;9.70;99.90;;;;;;5010455;28;20258;-74
2022/04/20 02:33:54;;;;;;;0.87;0.33;;;9.70;99.90;;;;;;5011599;28;20212;-74
2022/04/20 02:36:21;;;;;;;0.30;0.30;;;9.70;99.90;;;;;;5010536;28;20243;-74
2022/04/20 02:38:48;;;;;;;0.43;0.40;;;9.70;99.90;;;;;;5011676;28;20262;-76
2022/04/20 02:41:16;;;;;;;2.30;0.50;;;9.80;99.90;;;;;;5008889;28;20223;-75
2022/04/20 02:43:44;;;;;;;0.40;0.40;;;9.80;99.90;;;;;;5011143;28;20672;-73
2022/04/20 02:46:12;;;;;;;0.40;0.30;;;9.80;99.90;;;;;;5009589;28;20208;-72
2022/04/20 02:48:39;;;;;;;1.03;0.33;;;9.70;99.90;;;;;;5011287;28;20619;-73
2022/04/20 02:51:06;;;;;;;0.40;0.40;;;9.80;99.90;;;;;;5010174;28;20235;-74
2022/04/20 02:53:33;;;;;;;0.50;0.37;;;9.70;99.90;;;;;;5007468;28;20250;-74
2022/04/20 02:56:00;;;;;;;1.43;0.60;;;9.70;99.90;;;;;;5008888;28;20729;-74
2022/04/20 02:58:27;;;;;;;0.60;0.57;;;9.80;1.00;;;;;;5005607;28;20234;-74
2022/04/20 03:00:55;;;;;;;0.47;0.37;;;9.80;1.00;;;;;;5003625;28;20200;-73
2022/04/20 03:03:22;;;;;;;0.70;0.70;;;9.80;99.90;;;;;;5005254;28;20266;-74
2022/04/20 03:05:50;;;;;;;0.63;0.50;;;9.70;99.90;;;;;;5010298;28;20236;-74
2022/04/20 03:08:17;;;;;;;0.97;0.67;;;9.70;1.00;;;;;;5009437;28;20219;-74
2022/04/20 03:10:44;;;;;;;0.60;0.60;;;9.70;1.00;;;;;;5010785;28;20675;-74
2022/04/20 03:13:11;;;;;;;1.50;0.60;;;9.70;1.00;;;;;;5010634;28;20208;-75
2022/04/20 03:15:38;;;;;;;0.83;0.83;;;9.70;1.00;;;;;;5009925;28;20255;-75
2022/04/20 03:18:07;;;;;;;0.50;0.50;;;9.70;1.00;;;;;;5010287;28;20586;-72
2022/04/20 03:20:34;;;;;;;1.27;1.17;;;9.80;1.00;;;;;;5011010;28;20200;-71
2022/04/20 03:23:01;;;;;;;0.77;0.50;;;9.80;1.00;;;;;;5008278;28;20200;-71
2022/04/20 03:25:28;;;;;;;1.70;0.80;;;9.70;1.00;;;;;;5010650;28;20212;-70
2022/04/20 03:27:55;;;;;;;0.60;0.60;;;9.80;1.00;;;;;;5011244;28;20204;-75
2022/04/20 03:30:22;;;;;;;1.17;0.40;;;9.80;1.00;;;;;;5012011;28;20228;-74
2022/04/20 03:32:49;;;;;;;0.47;0.43;;;9.70;1.00;;;;;;5014768;28;20273;-72
2022/04/20 03:35:18;;;;;;;0.50;0.40;;;9.70;1.00;;;;;;5012998;28;20203;-72
2022/04/20 03:37:45;;;;;;;2.03;1.03;;;9.60;1.00;;;;;;5014296;28;20208;-73
2022/04/20 03:40:12;;;;;;;0.47;0.40;;;9.60;1.00;;;;;;5014369;28;20212;-72
2022/04/20 03:42:39;;;;;;;0.70;0.30;;;9.70;1.00;;;;;;5014465;28;20270;-72
2022/04/20 03:45:07;;;;;;;1.17;0.30;;;9.70;1.00;;;;;;5013024;28;20259;-72
2022/04/20 03:47:35;;;;;;;0.70;0.30;;;9.60;1.00;;;;;;5014762;28;20277;-72
2022/04/20 03:50:02;;;;;;;1.00;0.97;;;9.60;1.00;;;;;;5013876;28;20259;-72
2022/04/20 03:52:30;;;;;;;1.80;0.30;;;9.60;1.00;;;;;;5015036;28;20628;-72
2022/04/20 03:54:57;;;;;;;1.53;0.47;;;9.60;1.00;;;;;;5014250;28;20286;-72
2022/04/20 03:57:24;;;;;;;0.30;0.30;;;9.50;1.00;;;;;;5013953;28;20204;-72
2022/04/20 03:59:51;;;;;;;0.37;0.33;;;9.50;1.00;;;;;;5013556;28;20750;-74
2022/04/20 04:02:18;;;;;;;0.77;0.30;;;9.60;1.00;;;;;;5009948;28;20201;-75
2022/04/20 04:04:45;;;;;;;0.40;0.40;;;9.60;1.00;;;;;;5009298;28;20212;-74
2022/04/20 04:07:12;;;;;;;0.43;0.43;;;9.60;1.00;;;;;;4989912;28;20687;-72
2022/04/20 04:09:41;;;;;;;0.40;0.40;;;9.60;1.00;;;;;;5013332;28;20667;-72
2022/04/20 04:12:09;;;;;;;1.03;0.43;;;9.70;1.00;;;;;;5013331;28;20242;-77
2022/04/20 04:14:38;;;;;;;1.80;0.50;;;9.70;1.00;;;;;;5034132;28;20200;-77
2022/04/20 04:17:06;;;;;;;0.93;0.90;;;9.70;1.00;;;;;;5026133;28;20325;-76
2022/04/20 04:19:34;;;;;;;1.40;0.70;;;9.70;1.00;;;;;;5013039;28;20204;-73
2022/04/20 04:22:01;;;;;;;0.63;0.30;;;9.70;1.00;;;;;;5008513;28;20592;-72
2022/04/20 04:24:39;;;;;;;1.93;0.47;;;9.80;1.00;;;;;;5015604;28;20296;-73
2022/04/20 04:27:09;;;;;;;1.13;0.47;;;9.80;1.00;;;;;;5003728;28;20211;-73
2022/04/20 04:29:37;;;;;;;0.20;0.20;;;9.80;1.00;;;;;;5007659;28;20683;-73
2022/04/20 04:32:05;;;;;;;0.30;0.30;;;9.70;1.00;;;;;;5008653;28;20208;-73
2022/04/20 04:34:32;;;;;;;0.83;0.30;;;9.80;1.00;;;;;;5003125;28;20200;-73
2022/04/20 04:36:59;;;;;;;0.20;0.20;;;9.90;1.00;;;;;;5003226;28;20207;-73
2022/04/20 04:39:28;;;;;;;0.30;0.30;;;9.90;1.00;;;;;;5001654;28;20622;-72
2022/04/20 04:41:59;;;;;;;0.40;0.20;;;9.70;1.00;;;;;;5012081;28;20212;-74
2022/04/20 04:44:28;;;;;;;1.10;0.30;;;9.80;1.00;;;;;;5012630;28;20212;-74
2022/04/20 04:49:39;;;;;;;0.20;0.20;;;9.80;1.00;;;;;;5006799;28;20195;-74
2022/04/20 04:52:11;;;;;;;0.50;0.27;;;9.80;1.00;;;;;;5005836;28;20591;-73
2022/04/20 04:54:40;;;;;;;0.87;0.40;;;9.60;1.00;;;;;;5006663;28;20192;-73
2022/04/20 04:57:08;;;;;;;0.90;0.50;;;9.60;1.00;;;;;;4998517;28;20648;-74
2022/04/20 04:59:38;;;;;;;0.30;0.30;;;9.60;1.00;;;;;;5009154;28;20595;-73
2022/04/20 05:02:06;;;;;;;0.40;0.30;;;9.50;1.00;;;;;;5011047;28;20244;-73
2022/04/20 05:04:33;;;;;;;2.33;0.30;;;9.60;1.00;;;;;;5013259;28;20283;-73
2022/04/20 05:07:00;;;;;;;0.60;0.60;;;9.60;1.00;;;;;;5011067;28;20204;-73
2022/04/20 05:09:27;;;;;;;0.57;0.50;;;9.70;1.00;;;;;;5010244;28;20722;-72
2022/04/20 05:11:54;;;;;;;1.27;0.57;;;9.80;1.00;;;;;;5017785;28;20235;-73
2022/04/20 05:14:21;;;;;;;0.80;0.80;;;9.80;1.00;;;;;;5011447;28;20318;-73
2022/04/20 05:16:50;;;;;;;0.70;0.70;;;9.90;1.00;;;;;;5009674;28;20200;-72
2022/04/20 05:19:17;;;;;;;8.23;2.20;;;10.50;1.00;;;;;;5010946;28;20209;-72
2022/04/20 05:21:44;;;;;;;2.90;1.73;;;10.60;1.00;;;;;;5013336;28;20208;-72
2022/04/20 05:24:11;;;;;;;1.57;0.77;;;10.80;99.90;;;;;;5017737;28;20386;-71
2022/04/20 05:26:38;;;;;;;0.50;0.40;;;10.50;99.90;;;;;;5005532;28;20213;-70
2022/04/20 05:29:06;;;;;;;1.00;0.40;;;10.20;1.00;;;;;;5010886;28;20204;-71
2022/04/20 05:31:33;;;;;;;0.40;0.40;;;10.00;1.00;;;;;;5010845;28;20589;-71
2022/04/20 05:34:03;;;;;;;0.80;0.77;;;10.00;1.00;;;;;;5012229;28;20651;-71
2022/04/20 05:41:39;;;;;;;0.47;0.30;;;9.90;1.00;;;;;;5011973;28;20205;-72
2022/04/20 05:42:02;;;;;;;0.70;0.47;;;9.90;1.00;;;;;;5012185;28;20222;-72
2022/04/20 05:44:29;;;;;;;0.40;0.40;;;9.80;1.00;;;;;;5007103;28;20265;-72
2022/04/20 05:46:56;;;;;;;0.60;0.60;;;9.90;1.00;;;;;;4992932;28;20259;-72
2022/04/20 05:49:25;;;;;;;0.40;0.40;;;9.80;1.00;;;;;;4996928;28;20208;-71
2022/04/20 05:51:51;;;;;;;1.20;0.47;;;9.80;1.00;;;;;;5006635;28;20232;-72
2022/04/20 05:54:18;;;;;;;1.23;0.60;;;10.00;1.00;;;;;;5009656;28;20200;-72
2022/04/20 05:56:45;;;;;;;0.97;0.73;;;10.10;1.00;;;;;;5010930;28;20204;-72
2022/04/20 05:59:12;;;;;;;0.40;0.40;;;10.00;1.00;;;;;;5004096;28;20255;-72
2022/04/20 06:01:39;;;;;;;0.57;0.40;;;9.90;1.00;;;;;;5010130;28;20260;-72
2022/04/20 06:04:06;;;;;;;0.93;0.83;;;10.00;1.00;;;;;;5000828;28;20638;-72
2022/04/20 06:06:35;;;;;;;1.07;0.67;;;10.10;1.00;;;;;;5008759;28;20730;-72
2022/04/20 06:09:02;;;;;;;0.60;0.50;;;10.00;1.00;;;;;;5007887;28;20216;-71
2022/04/20 06:11:30;;;;;;;2.03;0.63;;;10.00;1.00;;;;;;5007995;28;20224;-71
2022/04/20 06:13:57;;;;;;;0.70;0.47;;;10.00;1.00;;;;;;5008733;28;20294;-72
2022/04/20 06:16:24;;;;;;;1.83;0.83;;;10.10;1.00;;;;;;5008679;28;20211;-72
2022/04/20 06:18:52;;;;;;;1.07;0.70;;;10.20;1.00;;;;;;5007969;28;20211;-72
2022/04/20 06:21:19;;;;;;;0.97;0.87;;;10.20;99.90;;;;;;5006354;28;20235;-72
2022/04/20 06:23:47;;;;;;;1.70;1.10;;;10.30;99.90;;;;;;5009817;28;20619;-71
2022/04/20 06:26:14;;;;;;;0.87;0.80;;;10.30;99.90;;;;;;5008352;28;20200;-72
2022/04/20 06:28:41;;;;;;;0.73;0.50;;;10.20;99.90;;;;;;5000905;28;20208;-71
2022/04/20 06:31:08;;;;;;;0.73;0.73;;;10.10;99.90;;;;;;5012471;28;20778;-72
2022/04/20 06:33:35;;;;;;;0.60;0.40;;;10.20;99.90;;;;;;5007375;28;20204;-71
2022/04/20 06:36:03;;;;;;;0.87;0.77;;;10.20;99.90;;;;;;5005518;28;20276;-72
2022/04/20 06:38:30;;;;;;;0.40;0.40;;;10.20;99.90;;;;;;5002760;28;20211;-72
2022/04/20 06:40:59;;;;;;;0.80;0.40;;;10.00;99.90;;;;;;5000574;28;20263;-72
2022/04/20 06:43:26;;;;;;;0.30;0.20;;;10.00;99.90;;;;;;5006575;28;20295;-72
2022/04/20 06:45:54;;;;;;;0.73;0.63;;;10.00;99.90;;;;;;5003491;28;20343;-71
2022/04/20 06:48:21;;;;;;;0.80;0.50;;;10.10;99.90;;;;;;5003844;28;20291;-71
2022/04/20 06:50:48;;;;;;;0.43;0.20;;;10.20;99.90;;;;;;5007724;28;20228;-72
2022/04/20 06:58:45;;;;;;;0.93;0.63;;;9.90;99.90;;;;;;5006937;28;20293;-72
2022/04/20 07:01:14;;;;;;;0.67;0.30;;;9.90;99.90;;;;;;5009960;28;20270;-72
2022/04/20 07:03:42;;;;;;;0.67;0.37;;;9.80;99.90;;;;;;5009353;28;20365;-72
2022/04/20 07:06:09;;;;;;;0.47;0.40;;;9.90;99.90;;;;;;5010175;28;20228;-72
2022/04/20 07:08:37;;;;;;;0.90;0.60;;;9.90;99.90;;;;;;5010353;28;20301;-72
2022/04/20 07:11:05;;;;;;;1.33;1.00;;;9.80;99.90;;;;;;5010280;28;20236;-72
2022/04/20 07:13:32;;;;;;;2.87;0.50;;;9.90;99.90;;;;;;5011042;28;20258;-72
2022/04/20 07:16:00;;;;;;;1.53;0.60;;;10.10;99.90;;;;;;5011055;28;20578;-72
2022/04/20 07:18:27;;;;;;;1.03;0.33;;;10.10;99.90;;;;;;5011057;28;20216;-73
2022/04/20 07:20:54;;;;;;;3.63;0.70;;;10.30;99.90;;;;;;5001109;28;20641;-72
2022/04/20 07:23:22;;;;;;;1.40;0.43;;;10.40;99.90;;;;;;5006507;28;20204;-72
2022/04/20 07:25:49;;;;;;;0.50;0.40;;;10.40;99.90;;;;;;5007698;28;20304;-71
2022/04/20 07:28:17;;;;;;;0.50;0.50;;;10.50;99.90;;;;;;5004397;28;20298;-71
2022/04/20 07:30:44;;;;;;;0.47;0.47;;;10.40;99.90;;;;;;5008269;28;20668;-72
2022/04/20 07:33:15;;;;;;;0.60;0.50;;;10.40;99.90;;;;;;5006909;28;20730;-68
2022/04/20 07:35:44;;;;;;;0.50;0.50;;;10.30;99.90;;;;;;5009143;28;20218;-70
2022/04/20 07:38:11;;;;;;;0.40;0.37;;;10.50;99.90;;;;;;5009599;28;20231;-71
2022/04/20 07:40:38;;;;;;;0.40;0.40;;;10.60;99.90;;;;;;5006044;28;20204;-73
2022/04/20 07:43:05;;;;;;;0.50;0.50;;;10.50;99.90;;;;;;4997736;28;20205;-73
2022/04/20 07:45:34;;;;;;;0.67;0.67;;;10.20;99.90;;;;;;5009940;28;20258;-72
2022/04/20 07:48:01;;;;;;;0.67;0.67;;;10.20;99.90;;;;;;4995903;28;20209;-76
2022/04/20 07:50:28;;;;;;;0.30;0.30;;;10.30;99.90;;;;;;4990509;28;20747;-73
2022/04/20 07:52:57;;;;;;;0.60;0.60;;;10.50;99.90;;;;;;4999760;28;20240;-71
2022/04/20 07:55:25;;;;;;;0.40;0.40;;;10.50;99.90;;;;;;4999897;28;20271;-74
2022/04/20 07:57:54;;;;;;;0.40;0.30;;;10.50;99.90;;;;;;5000189;28;20208;-71
2022/04/20 08:00:22;;;;;;;0.77;0.63;;;10.60;99.90;;;;;;5007107;28;20204;-71
2022/04/20 08:02:51;;;;;;;0.67;0.60;;;10.70;99.90;;;;;;5009704;28;20208;-71
2022/04/20 08:05:20;;;;;;;1.27;0.67;;;10.40;99.90;;;;;;5006338;28;20691;-71
2022/04/20 08:07:47;;;;;;;1.07;1.00;;;10.30;99.90;;;;;;4998409;28;20236;-71
2022/04/20 08:10:15;;;;;;;2.00;0.73;;;10.40;99.90;;;;;;5007895;28;20212;-73
2022/04/20 08:12:44;;;;;;;1.67;0.83;;;10.50;99.90;;;;;;4993836;28;20243;-72
2022/04/20 08:15:12;;;;;;;1.30;1.20;;;10.50;99.90;;;;;;4989656;28;20213;-73
2022/04/20 08:17:39;;;;;;;1.53;0.70;;;10.50;99.90;;;;;;4994800;28;20205;-72
2022/04/20 08:20:10;;;;;;;1.00;0.77;;;10.60;99.90;;;;;;4995004;28;20266;-72
2022/04/20 08:22:41;;;;;;;1.80;1.17;;;10.70;99.90;;;;;;5004915;28;20737;-74
2022/04/20 08:25:09;;;;;;;0.60;0.60;;;10.90;99.90;;;;;;4997906;28;20230;-73
2022/04/20 08:27:37;;;;;;;0.50;0.50;;;10.90;99.90;;;;;;5005525;28;20216;-72
2022/04/20 08:30:05;;;;;;;0.70;0.70;;;10.80;99.90;;;;;;4995220;28;20247;-73
2022/04/20 08:32:32;;;;;;;0.80;0.60;;;10.70;99.90;;;;;;4998759;28;20239;-73
2022/04/20 08:34:59;;;;;;;0.77;0.60;;;10.70;99.90;;;;;;4995667;28;20667;-74
2022/04/20 08:37:27;;;;;;;0.67;0.50;;;10.80;99.90;;;;;;4999506;28;20583;-75
2022/04/20 08:39:54;;;;;;;1.03;0.60;;;10.60;99.90;;;;;;4994641;28;20558;-74
2022/04/20 08:42:22;;;;;;;2.20;0.90;;;10.70;99.90;;;;;;4992673;28;20236;-75
2022/04/20 08:44:50;;;;;;;1.50;1.00;;;11.00;99.90;;;;;;4993173;28;21143;-74
2022/04/20 08:47:21;;;;;;;1.37;1.00;;;11.10;99.90;;;;;;4994350;28;20212;-74
2022/04/20 08:49:50;;;;;;;0.67;0.60;;;11.20;99.90;;;;;;4992974;28;20582;-74
2022/04/20 08:55:05;;;;;;;0.70;0.70;;;11.00;99.90;;;;;;5012861;28;20219;-74
2022/04/20 08:57:34;;;;;;;1.07;0.80;;;11.00;99.90;;;;;;5012864;28;20216;-75
2022/04/20 09:00:02;;;;;;;0.60;0.60;;;11.10;99.90;;;;;;5009525;28;20213;-74
2022/04/20 09:02:29;;;;;;;0.70;0.60;;;11.20;99.90;;;;;;4993091;28;20212;-75
2022/04/20 09:04:56;;;;;;;0.63;0.60;;;11.30;99.90;;;;;;4996848;28;20208;-74
2022/04/20 09:07:25;;;;;;;0.60;0.57;;;11.30;99.90;;;;;;5007076;28;20204;-75
2022/04/20 09:09:53;;;;;;;0.70;0.60;;;11.50;99.90;;;;;;5002769;28;20758;-74
2022/04/20 09:12:23;;;;;;;0.80;0.53;;;11.50;99.90;;;;;;5012360;28;20991;-75
2022/04/20 09:14:52;;;;;;;0.60;0.60;;;11.40;99.90;;;;;;5010612;28;20296;-76
2022/04/20 09:17:20;;;;;;;0.50;0.50;;;11.30;99.90;;;;;;5010548;28;20809;-74
2022/04/20 09:19:51;;;;;;;0.60;0.50;;;11.30;99.90;;;;;;5011713;28;20212;-76
2022/04/20 09:22:20;;;;;;;1.60;0.87;;;11.30;99.90;;;;;;5012321;28;20208;-74
2022/04/20 09:25:04;;;;;;;0.60;0.60;;;11.50;99.90;;;;;;5012762;28;20634;-76
2022/04/20 09:27:34;;;;;;;1.10;0.70;;;11.50;99.90;;;;;;5011577;28;20587;-75
2022/04/20 09:30:01;;;;;;;1.10;0.73;;;11.40;99.90;;;;;;5011942;28;20301;-75
2022/04/20 09:32:37;;;;;;;0.80;0.47;;;11.40;99.90;;;;;;5012461;28;20462;-75
2022/04/20 09:35:07;;;;;;;0.53;0.53;;;11.30;99.90;;;;;;5012012;28;20339;-75
2022/04/20 09:37:36;;;;;;;0.40;0.40;;;11.30;99.90;;;;;;5010654;28;20208;-75
2022/04/20 09:40:05;;;;;;;1.13;0.70;;;11.20;99.90;;;;;;5003017;28;20263;-76
2022/04/20 09:42:35;;;;;;;1.80;0.60;;;11.10;99.90;;;;;;4994701;28;20272;-75
2022/04/20 09:45:04;;;;;;;0.97;0.50;;;11.10;99.90;;;;;;4995143;28;20740;-75
2022/04/20 09:50:23;;;;;;;2.70;0.43;;;11.30;99.90;;;;;;5011483;28;20211;-75
2022/04/20 09:52:52;;;;;;;1.70;0.37;;;11.50;99.90;;;;;;5010925;28;20250;-74
2022/04/20 09:55:28;;;;;;;2.53;1.53;;;11.60;99.90;;;;;;5011772;28;20283;-74
2022/04/20 09:58:12;;;;;;;0.50;0.50;;;11.50;99.90;;;;;;5003790;28;20200;-71
2022/04/20 10:00:41;;;;;;;0.60;0.50;;;12.50;70.60;;;;;;5001856;28;20215;-75
2022/04/20 10:03:09;;;;;;;0.70;0.37;;;12.40;99.90;;;;;;5001139;28;20236;-74
2022/04/20 10:05:37;;;;;;;0.50;0.50;;;11.60;1.00;;;;;;5006011;28;20212;-75
2022/04/20 10:08:05;;;;;;;2.50;1.63;;;12.80;1.00;;;;;;5010235;28;20669;-74
2022/04/20 10:10:34;;;;;;;1.57;0.70;;;12.40;99.90;;;;;;5003824;28;20292;-75
2022/04/20 10:13:03;;;;;;;0.50;0.50;;;12.60;99.90;;;;;;4998056;28;20237;-74
2022/04/20 10:18:19;;;;;;;0.40;0.40;;;12.50;99.90;;;;;;5010511;28;20215;-75
2022/04/20 10:20:49;;;;;;;0.57;0.45;;;12.80;99.90;;;;;;5001682;28;20581;-70
2022/04/20 10:23:19;;;;;;;1.30;0.53;;;12.50;99.90;;;;;;5007087;28;20212;-71
2022/04/20 10:25:47;;;;;;;0.57;0.52;;;12.80;99.90;;;;;;5010837;28;20641;-75
2022/04/20 10:28:20;;;;;;;1.08;1.00;;;13.90;99.90;;;;;;5010569;28;20254;-72
2022/04/20 10:30:59;;;;;;;0.80;0.80;;;13.70;99.90;;;;;;5010175;28;20208;-71
2022/04/20 10:33:31;;;;;;;0.63;0.60;;;13.20;99.90;;;;;;5011054;28;20231;-71
2022/04/20 10:36:00;;;;;;;1.15;0.50;;;13.20;99.90;;;;;;5008621;28;20220;-72
2022/04/20 10:38:29;;;;;;;0.65;0.40;;;13.20;99.90;;;;;;5011484;28;20240;-72
2022/04/20 10:41:03;;;;;;;0.50;0.38;;;13.30;99.90;;;;;;5011504;28;20204;-72
2022/04/20 10:43:31;;;;;;;0.50;0.40;;;13.30;99.90;;;;;;5011137;28;20306;-71
2022/04/20 10:46:18;;;;;;;1.35;0.55;;;13.60;99.90;;;;;;5011510;28;20287;-72
2022/04/20 10:48:47;;;;;;;0.63;0.47;;;13.60;99.90;;;;;;5011366;28;20206;-72
2022/04/20 10:51:15;;;;;;;1.20;0.40;;;13.70;99.90;;;;;;5010743;28;20762;-71
2022/04/20 10:53:44;;;;;;;0.60;0.50;;;13.60;99.90;;;;;;5010964;28;20239;-71
2022/04/20 10:56:11;;;;;;;0.43;0.22;;;13.40;99.90;;;;;;5010188;28;20235;-76
2022/04/20 10:58:38;;;;;;;0.90;0.32;;;13.30;99.90;;;;;;5010983;28;20251;-75
2022/04/20 11:01:10;;;;;;;0.40;0.38;;;13.20;99.90;;;;;;5010975;28;20307;-73
2022/04/20 11:04:10;;;;;;;1.13;0.50;;;13.60;99.90;;;;;;5011235;28;20295;-72
2022/04/20 11:07:15;;;;;;;0.45;0.40;;;13.80;99.90;;;;;;5008363;28;20209;-74
2022/04/20 11:09:50;;;;;;;0.70;0.70;;;13.50;99.90;;;;;;5011272;28;20223;-75
2022/04/20 11:21:21;;;;;;;0.55;0.52;;;13.00;99.90;;;;;;5007664;28;20207;-75
2022/04/20 11:23:59;;;;;;;2.50;1.70;;;12.90;99.90;;;;;;5003391;28;20552;-74
2022/04/20 11:26:32;;;;;;;0.52;0.40;;;12.90;99.90;;;;;;5003242;28;20203;-74
2022/04/20 11:29:01;;;;;;;1.27;0.40;;;12.80;99.90;;;;;;5007096;28;20251;-74
2022/04/20 11:31:37;;;;;;;2.00;0.40;;;12.60;99.90;;;;;;5005260;28;20211;-73
2022/04/20 11:34:04;;;;;;;0.60;0.60;;;12.60;99.90;;;;;;4998337;28;20676;-73
2022/04/20 11:36:33;;;;;;;1.25;0.90;;;12.40;99.90;;;;;;5008649;28;20204;-74
2022/04/20 11:39:01;;;;;;;0.82;0.52;;;12.40;99.90;;;;;;5007085;28;20208;-73
2022/04/20 11:41:28;;;;;;;0.73;0.55;;;12.30;99.90;;;;;;4997897;28;20755;-73
2022/04/20 11:43:55;;;;;;;0.43;0.40;;;12.30;99.90;;;;;;5007227;28;20212;-73
2022/04/20 11:46:23;;;;;;;0.63;0.52;;;12.20;99.90;;;;;;5009334;28;20208;-73
2022/04/20 11:48:52;;;;;;;0.52;0.43;;;12.20;99.90;;;;;;5009934;28;20204;-73
2022/04/20 11:51:25;;;;;;;0.50;0.30;;;12.10;99.90;;;;;;5008479;28;20235;-74
2022/04/20 11:53:54;;;;;;;1.05;0.60;;;12.10;99.90;;;;;;5009480;28;21017;-72
2022/04/20 11:56:35;;;;;;;2.22;0.60;;;12.00;99.90;;;;;;5013552;28;20271;-73
2022/04/20 11:59:02;;;;;;;0.70;0.60;;;12.00;99.90;;;;;;5013974;28;20742;-73
2022/04/20 12:01:32;;;;;;;0.60;0.50;;;12.10;99.90;;;;;;5009681;28;20628;-72
2022/04/20 12:04:02;;;;;;;0.77;0.55;;;12.20;99.90;;;;;;5009562;28;20296;-72
2022/04/20 12:06:30;;;;;;;1.08;0.70;;;12.30;99.90;;;;;;5013853;28;20259;-72
2022/04/20 12:08:59;;;;;;;0.82;0.73;;;12.30;99.90;;;;;;5014109;28;20200;-73
2022/04/20 12:11:26;;;;;;;1.52;0.50;;;12.40;99.90;;;;;;5013153;28;20208;-73
2022/04/20 12:13:56;;;;;;;0.90;0.60;;;12.40;99.90;;;;;;5009106;28;20262;-77
2022/04/20 12:16:27;;;;;;;0.65;0.60;;;12.40;99.90;;;;;;5013078;28;20298;-75
2022/04/20 12:18:54;;;;;;;0.73;0.60;;;12.10;99.90;;;;;;5013413;28;20638;-75
2022/04/20 12:21:44;;;;;;;0.90;0.47;;;12.20;99.90;;;;;;5013012;28;20742;-75
2022/04/20 12:24:20;;;;;;;0.90;0.70;;;12.20;99.90;;;;;;5003759;28;20236;-76
2022/04/20 12:26:49;;;;;;;1.50;0.68;;;12.30;99.90;;;;;;4996847;28;20203;-77
2022/04/20 12:29:18;;;;;;;0.90;0.55;;;12.60;99.90;;;;;;4993468;28;20733;-76
2022/04/20 12:31:47;;;;;;;1.30;0.68;;;12.40;99.90;;;;;;4994194;28;20205;-79
2022/04/20 12:34:17;;;;;;;0.98;0.68;;;12.50;99.90;;;;;;4993625;28;20239;-76
2022/04/20 12:36:59;;;;;;;1.90;0.68;;;12.40;99.90;;;;;;5008074;28;20204;-76
2022/04/20 12:39:32;;;;;;;0.73;0.68;;;12.50;99.90;;;;;;5013014;28;20230;-76
2022/04/20 12:42:02;;;;;;;3.10;0.90;;;12.30;99.90;;;;;;5008095;28;20206;-75
2022/04/20 12:44:46;;;;;;;1.48;0.60;;;12.30;99.90;;;;;;5010550;28;20262;-76
2022/04/20 12:47:46;;;;;;;1.00;0.90;;;12.50;99.90;;;;;;5003650;28;20254;-75
2022/04/20 12:50:21;;;;;;;1.33;0.63;;;12.80;99.90;;;;;;4933195;29;20219;-74
2022/04/20 12:53:00;;;;;;;0.88;0.70;;;12.80;99.90;;;;;;4933144;29;20230;-74
2022/04/20 13:02:01;;;;;;;1.75;0.60;;;12.70;99.90;;;;;;4969630;28;20204;-74
2022/04/20 13:04:12;;;;;;;0.77;0.65;;;12.20;99.90;;;;;;5010903;28;20278;-74
2022/04/20 13:06:39;;;;;;;0.75;0.50;;;12.40;99.90;;;;;;5012865;28;20282;-74
2022/04/20 13:09:06;;;;;;;0.98;0.45;;;12.50;99.90;;;;;;5012272;28;20208;-76
2022/04/20 13:11:35;;;;;;;2.13;0.88;;;12.50;99.90;;;;;;5012615;28;20220;-75
2022/04/20 13:14:02;;;;;;;1.25;0.60;;;12.50;99.90;;;;;;5011819;28;20232;-75
2022/04/20 13:16:29;;;;;;;1.20;0.70;;;12.50;99.90;;;;;;5006161;28;20212;-74
2022/04/20 13:18:56;;;;;;;1.10;0.77;;;12.60;99.90;;;;;;5010946;28;20263;-74
2022/04/20 13:21:24;;;;;;;0.88;0.85;;;12.20;99.90;;;;;;5012193;28;20208;-74
2022/04/20 13:23:52;;;;;;;0.57;0.52;;;11.90;99.90;;;;;;5008949;28;20230;-74
2022/04/20 13:29:05;;;;;;;1.80;0.65;;;12.40;99.90;;;;;;4997261;28;20358;-75
2022/04/20 13:31:32;;;;;;;1.13;0.80;;;12.30;99.90;;;;;;5011198;28;20210;-74
2022/04/20 13:33:59;;;;;;;0.73;0.73;;;12.30;99.90;;;;;;4993170;28;20237;-73
2022/04/20 13:36:26;;;;;;;1.33;0.70;;;12.40;99.90;;;;;;5007137;28;20234;-74
2022/04/20 13:38:53;;;;;;;1.85;0.60;;;12.30;99.90;;;;;;5010893;28;20208;-73
2022/04/20 13:41:20;;;;;;;0.70;0.50;;;12.50;99.90;;;;;;5011612;28;20282;-76